Ocean Celebrity — HOSZ — position and weather

sailwx.info

Track history (hours):
 
Tides and Currents Weather Stations Pressure Air Temp Water Temp Dewpoint Dewpoint Depression Visibility Wind Speed Wind Dir Waves Ship Positions

Ocean Celebrity

Last reported at 2015-Feb-20 07:05 UTC. Time now 2015-Feb-27 04:09 UTC.
Position S 26°17' E 153°54'.

Length 289 m; draft 9.9 m.

Type: Cargo ship. MMSI: 356712000.

Date/timePositionNaut miles runAvg speedWind from/ knotsBaromVisibWave heightAir tempDewpointWater temp
2015-Feb-20 07:05S 26°17' E 153°54'5 9.8
2015-Feb-20 06:33S 26°23' E 153°54'39 9.7
2015-Feb-20 02:33S 27°01' E 153°55'9 8.9
2015-Feb-20 01:33S 27°10' E 153°55'10 8.8
2015-Feb-20 00:23S 27°20' E 153°55'9 9.1
2015-Feb-19 23:27S 27°29' E 153°55'9 9.4
2015-Feb-19 22:31S 27°38' E 153°55'9 9.4
2015-Feb-19 21:33S 27°47' E 153°55'9 8.7
2015-Feb-19 20:33S 27°55' E 153°55'8 8.1
2015-Feb-19 19:32S 28°04' E 153°55'273 8.5
2015-Feb-18 11:26S 32°31' E 152°53'910.2
2015-Feb-18 10:33S 32°40' E 152°49'1010.0
2015-Feb-18 09:33S 32°49' E 152°44'10 9.8
2015-Feb-18 08:33S 32°57' E 152°38'13 9.8
2015-Feb-18 07:11S 33°10' E 152°32'910.1
2015-Feb-18 06:17S 33°18' E 152°28'105 2.3
2015-Feb-16 09:28S 34°28' E 150°54'  
Track history (hours):
 
Tides and Currents Weather Stations Pressure Air Temp Water Temp Dewpoint Dewpoint Depression Visibility Wind Speed Wind Dir Waves Ship Positions

Ocean Celebrity

Last reported at 2015-Feb-20 07:05 UTC. Time now 2015-Feb-27 04:09 UTC.
Position S 26°17' E 153°54'.

Length 289 m; draft 9.9 m.

Type: Cargo ship. MMSI: 356712000.

Date/timePositionNaut miles runAvg speedWind from/ knotsBaromVisibWave heightAir tempDewpointWater temp
2015-Feb-20 07:05S 26°17' E 153°54'5 9.8
2015-Feb-20 06:33S 26°23' E 153°54'39 9.7
2015-Feb-20 02:33S 27°01' E 153°55'9 8.9
2015-Feb-20 01:33S 27°10' E 153°55'10 8.8
2015-Feb-20 00:23S 27°20' E 153°55'9 9.1
2015-Feb-19 23:27S 27°29' E 153°55'9 9.4
2015-Feb-19 22:31S 27°38' E 153°55'9 9.4
2015-Feb-19 21:33S 27°47' E 153°55'9 8.7
2015-Feb-19 20:33S 27°55' E 153°55'8 8.1
2015-Feb-19 19:32S 28°04' E 153°55'273 8.5
2015-Feb-18 11:26S 32°31' E 152°53'910.2
2015-Feb-18 10:33S 32°40' E 152°49'1010.0
2015-Feb-18 09:33S 32°49' E 152°44'10 9.8
2015-Feb-18 08:33S 32°57' E 152°38'13 9.8
2015-Feb-18 07:11S 33°10' E 152°32'910.1
2015-Feb-18 06:17S 33°18' E 152°28'105 2.3
2015-Feb-16 09:28S 34°28' E 150°54'  

Dump ship's entire track history